sensor_id;sensor_type;location;lat;lon;timestamp;P1;durP1;ratioP1;P2;durP2;ratioP2
13967;SDS011;39536;52.198;9.920;2022-08-30T00:00:58;2.20;;;0.90;;
13967;SDS011;39536;52.198;9.920;2022-08-30T00:03:27;1.00;;;1.00;;
13967;SDS011;39536;52.198;9.920;2022-08-30T00:05:55;1.10;;;1.10;;
13967;SDS011;39536;52.198;9.920;2022-08-30T00:08:22;1.00;;;1.00;;
13967;SDS011;39536;52.198;9.920;2022-08-30T00:10:49;1.93;;;1.37;;
13967;SDS011;39536;52.198;9.920;2022-08-30T00:13:17;1.47;;;1.17;;
13967;SDS011;39536;52.198;9.920;2022-08-30T00:15:45;1.83;;;1.20;;
13967;SDS011;39536;52.198;9.920;2022-08-30T00:18:12;2.17;;;1.27;;
13967;SDS011;39536;52.198;9.920;2022-08-30T00:20:42;1.33;;;1.23;;
13967;SDS011;39536;52.198;9.920;2022-08-30T00:23:09;1.43;;;1.30;;
13967;SDS011;39536;52.198;9.920;2022-08-30T00:25:37;1.63;;;1.30;;
13967;SDS011;39536;52.198;9.920;2022-08-30T00:28:04;1.93;;;1.10;;
13967;SDS011;39536;52.198;9.920;2022-08-30T00:30:32;1.53;;;1.20;;
13967;SDS011;39536;52.198;9.920;2022-08-30T00:32:58;3.13;;;1.33;;
13967;SDS011;39536;52.198;9.920;2022-08-30T00:35:25;1.33;;;1.33;;
13967;SDS011;39536;52.198;9.920;2022-08-30T00:37:52;1.63;;;1.53;;
13967;SDS011;39536;52.198;9.920;2022-08-30T00:40:19;1.40;;;1.30;;
13967;SDS011;39536;52.198;9.920;2022-08-30T00:42:47;1.40;;;1.30;;
13967;SDS011;39536;52.198;9.920;2022-08-30T00:45:15;1.60;;;1.50;;
13967;SDS011;39536;52.198;9.920;2022-08-30T00:47:47;1.53;;;1.53;;
13967;SDS011;39536;52.198;9.920;2022-08-30T00:50:14;2.00;;;1.80;;
13967;SDS011;39536;52.198;9.920;2022-08-30T00:52:43;1.67;;;1.57;;
13967;SDS011;39536;52.198;9.920;2022-08-30T00:55:13;2.93;;;1.73;;
13967;SDS011;39536;52.198;9.920;2022-08-30T00:57:42;1.40;;;1.40;;
13967;SDS011;39536;52.198;9.920;2022-08-30T01:00:11;1.50;;;1.50;;
13967;SDS011;39536;52.198;9.920;2022-08-30T01:02:39;1.20;;;1.20;;
13967;SDS011;39536;52.198;9.920;2022-08-30T01:05:08;2.83;;;1.40;;
13967;SDS011;39536;52.198;9.920;2022-08-30T01:07:37;1.50;;;1.40;;
13967;SDS011;39536;52.198;9.920;2022-08-30T01:10:05;1.73;;;1.63;;
13967;SDS011;39536;52.198;9.920;2022-08-30T01:12:35;1.70;;;1.37;;
13967;SDS011;39536;52.198;9.920;2022-08-30T01:15:03;1.80;;;1.70;;
13967;SDS011;39536;52.198;9.920;2022-08-30T01:17:31;1.70;;;1.60;;
13967;SDS011;39536;52.198;9.920;2022-08-30T01:20:00;1.80;;;1.70;;
13967;SDS011;39536;52.198;9.920;2022-08-30T01:22:32;1.73;;;1.63;;
13967;SDS011;39536;52.198;9.920;2022-08-30T01:25:06;1.57;;;1.47;;
13967;SDS011;39536;52.198;9.920;2022-08-30T01:27:35;1.70;;;1.60;;
13967;SDS011;39536;52.198;9.920;2022-08-30T01:30:07;1.30;;;1.30;;
13967;SDS011;39536;52.198;9.920;2022-08-30T01:32:37;1.83;;;1.73;;
13967;SDS011;39536;52.198;9.920;2022-08-30T01:35:05;1.70;;;1.60;;
13967;SDS011;39536;52.198;9.920;2022-08-30T01:37:32;1.20;;;1.20;;
13967;SDS011;39536;52.198;9.920;2022-08-30T01:40:00;1.83;;;1.73;;
13967;SDS011;39536;52.198;9.920;2022-08-30T01:42:28;1.33;;;1.33;;
13967;SDS011;39536;52.198;9.920;2022-08-30T01:44:55;1.70;;;1.60;;
13967;SDS011;39536;52.198;9.920;2022-08-30T01:47:21;2.00;;;1.90;;
13967;SDS011;39536;52.198;9.920;2022-08-30T01:49:48;2.13;;;1.80;;
13967;SDS011;39536;52.198;9.920;2022-08-30T01:52:16;1.90;;;1.80;;
13967;SDS011;39536;52.198;9.920;2022-08-30T01:54:43;1.50;;;1.50;;
13967;SDS011;39536;52.198;9.920;2022-08-30T01:57:13;1.77;;;1.67;;
13967;SDS011;39536;52.198;9.920;2022-08-30T01:59:43;2.80;;;2.10;;
13967;SDS011;39536;52.198;9.920;2022-08-30T02:02:11;1.60;;;1.60;;
13967;SDS011;39536;52.198;9.920;2022-08-30T02:04:39;2.20;;;2.10;;
13967;SDS011;39536;52.198;9.920;2022-08-30T02:07:06;2.13;;;2.03;;
13967;SDS011;39536;52.198;9.920;2022-08-30T02:09:32;2.50;;;2.40;;
13967;SDS011;39536;52.198;9.920;2022-08-30T02:11:59;2.03;;;1.93;;
13967;SDS011;39536;52.198;9.920;2022-08-30T02:14:26;2.10;;;2.00;;
13967;SDS011;39536;52.198;9.920;2022-08-30T02:16:54;2.10;;;2.00;;
13967;SDS011;39536;52.198;9.920;2022-08-30T02:19:20;2.40;;;2.20;;
13967;SDS011;39536;52.198;9.920;2022-08-30T02:21:47;2.23;;;2.13;;
13967;SDS011;39536;52.198;9.920;2022-08-30T02:24:13;2.80;;;2.60;;
13967;SDS011;39536;52.198;9.920;2022-08-30T02:26:40;2.27;;;2.17;;
13967;SDS011;39536;52.198;9.920;2022-08-30T02:29:07;2.60;;;2.50;;
13967;SDS011;39536;52.198;9.920;2022-08-30T02:31:34;2.37;;;2.27;;
13967;SDS011;39536;52.198;9.920;2022-08-30T02:34:02;2.80;;;2.70;;
13967;SDS011;39536;52.198;9.920;2022-08-30T02:36:29;2.63;;;2.53;;
13967;SDS011;39536;52.198;9.920;2022-08-30T02:38:56;3.00;;;2.80;;
13967;SDS011;39536;52.198;9.920;2022-08-30T02:41:22;3.17;;;2.97;;
13967;SDS011;39536;52.198;9.920;2022-08-30T02:43:49;2.67;;;2.57;;
13967;SDS011;39536;52.198;9.920;2022-08-30T02:46:16;3.47;;;3.27;;
13967;SDS011;39536;52.198;9.920;2022-08-30T02:48:43;3.00;;;2.90;;
13967;SDS011;39536;52.198;9.920;2022-08-30T02:51:11;2.97;;;2.87;;
13967;SDS011;39536;52.198;9.920;2022-08-30T02:53:39;3.40;;;3.10;;
13967;SDS011;39536;52.198;9.920;2022-08-30T02:56:08;3.07;;;2.97;;
13967;SDS011;39536;52.198;9.920;2022-08-30T02:58:35;2.90;;;2.70;;
13967;SDS011;39536;52.198;9.920;2022-08-30T03:01:02;2.40;;;2.20;;
13967;SDS011;39536;52.198;9.920;2022-08-30T03:03:29;2.40;;;2.07;;
13967;SDS011;39536;52.198;9.920;2022-08-30T03:05:56;3.07;;;2.87;;
13967;SDS011;39536;52.198;9.920;2022-08-30T03:08:24;3.30;;;3.10;;
13967;SDS011;39536;52.198;9.920;2022-08-30T03:10:51;2.83;;;2.70;;
13967;SDS011;39536;52.198;9.920;2022-08-30T03:13:17;3.27;;;3.17;;
13967;SDS011;39536;52.198;9.920;2022-08-30T03:15:44;4.10;;;3.80;;
13967;SDS011;39536;52.198;9.920;2022-08-30T03:18:13;2.90;;;2.70;;
13967;SDS011;39536;52.198;9.920;2022-08-30T03:20:39;3.63;;;3.43;;
13967;SDS011;39536;52.198;9.920;2022-08-30T03:23:06;3.60;;;3.40;;
13967;SDS011;39536;52.198;9.920;2022-08-30T03:25:34;4.27;;;4.07;;
13967;SDS011;39536;52.198;9.920;2022-08-30T03:28:01;4.30;;;3.90;;
13967;SDS011;39536;52.198;9.920;2022-08-30T03:30:28;4.20;;;3.90;;
13967;SDS011;39536;52.198;9.920;2022-08-30T03:32:55;4.27;;;4.07;;
13967;SDS011;39536;52.198;9.920;2022-08-30T03:35:21;4.70;;;4.40;;
13967;SDS011;39536;52.198;9.920;2022-08-30T03:37:48;5.37;;;4.97;;
13967;SDS011;39536;52.198;9.920;2022-08-30T03:40:15;5.43;;;5.03;;
13967;SDS011;39536;52.198;9.920;2022-08-30T03:42:45;5.77;;;5.37;;
13967;SDS011;39536;52.198;9.920;2022-08-30T03:45:13;5.93;;;5.47;;
13967;SDS011;39536;52.198;9.920;2022-08-30T03:47:41;5.50;;;5.20;;
13967;SDS011;39536;52.198;9.920;2022-08-30T03:50:09;5.30;;;5.00;;
13967;SDS011;39536;52.198;9.920;2022-08-30T03:52:36;5.70;;;5.20;;
13967;SDS011;39536;52.198;9.920;2022-08-30T03:55:03;5.97;;;5.67;;
13967;SDS011;39536;52.198;9.920;2022-08-30T03:57:31;6.23;;;5.93;;
13967;SDS011;39536;52.198;9.920;2022-08-30T03:59:59;6.40;;;5.90;;
13967;SDS011;39536;52.198;9.920;2022-08-30T04:02:25;7.03;;;6.53;;
13967;SDS011;39536;52.198;9.920;2022-08-30T04:04:53;7.17;;;6.67;;
13967;SDS011;39536;52.198;9.920;2022-08-30T04:07:19;8.43;;;7.07;;
13967;SDS011;39536;52.198;9.920;2022-08-30T04:09:46;10.07;;;9.07;;
13967;SDS011;39536;52.198;9.920;2022-08-30T04:12:12;13.43;;;7.90;;
13967;SDS011;39536;52.198;9.920;2022-08-30T04:14:39;8.97;;;8.10;;
13967;SDS011;39536;52.198;9.920;2022-08-30T04:17:07;11.03;;;8.77;;
13967;SDS011;39536;52.198;9.920;2022-08-30T04:19:34;7.40;;;6.80;;
13967;SDS011;39536;52.198;9.920;2022-08-30T04:22:00;9.43;;;8.07;;
13967;SDS011;39536;52.198;9.920;2022-08-30T04:24:27;9.33;;;8.63;;
13967;SDS011;39536;52.198;9.920;2022-08-30T04:26:53;10.40;;;9.40;;
13967;SDS011;39536;52.198;9.920;2022-08-30T04:29:20;10.70;;;9.70;;
13967;SDS011;39536;52.198;9.920;2022-08-30T04:31:47;11.83;;;10.57;;
13967;SDS011;39536;52.198;9.920;2022-08-30T04:34:15;14.03;;;12.00;;
13967;SDS011;39536;52.198;9.920;2022-08-30T04:36:41;16.93;;;13.60;;
13967;SDS011;39536;52.198;9.920;2022-08-30T04:39:08;13.93;;;12.63;;
13967;SDS011;39536;52.198;9.920;2022-08-30T04:41:35;14.37;;;11.67;;
13967;SDS011;39536;52.198;9.920;2022-08-30T04:44:04;13.17;;;11.80;;
13967;SDS011;39536;52.198;9.920;2022-08-30T04:46:32;16.30;;;12.47;;
13967;SDS011;39536;52.198;9.920;2022-08-30T04:48:59;13.50;;;12.40;;
13967;SDS011;39536;52.198;9.920;2022-08-30T04:51:27;13.17;;;12.13;;
13967;SDS011;39536;52.198;9.920;2022-08-30T04:53:54;13.97;;;12.63;;
13967;SDS011;39536;52.198;9.920;2022-08-30T04:56:21;14.10;;;12.60;;
13967;SDS011;39536;52.198;9.920;2022-08-30T04:58:49;14.37;;;12.50;;
13967;SDS011;39536;52.198;9.920;2022-08-30T05:01:19;14.03;;;12.53;;
13967;SDS011;39536;52.198;9.920;2022-08-30T05:03:47;13.80;;;12.53;;
13967;SDS011;39536;52.198;9.920;2022-08-30T05:06:13;13.80;;;12.70;;
13967;SDS011;39536;52.198;9.920;2022-08-30T05:08:42;12.80;;;11.53;;
13967;SDS011;39536;52.198;9.920;2022-08-30T05:11:09;13.23;;;12.03;;
13967;SDS011;39536;52.198;9.920;2022-08-30T05:13:36;13.73;;;12.33;;
13967;SDS011;39536;52.198;9.920;2022-08-30T05:16:04;21.17;;;11.80;;
13967;SDS011;39536;52.198;9.920;2022-08-30T05:18:32;23.57;;;12.37;;
13967;SDS011;39536;52.198;9.920;2022-08-30T05:21:03;13.10;;;11.90;;
13967;SDS011;39536;52.198;9.920;2022-08-30T05:23:31;13.53;;;12.17;;
13967;SDS011;39536;52.198;9.920;2022-08-30T05:26:02;12.53;;;11.37;;
13967;SDS011;39536;52.198;9.920;2022-08-30T05:28:31;13.93;;;10.70;;
13967;SDS011;39536;52.198;9.920;2022-08-30T05:30:58;13.27;;;10.73;;
13967;SDS011;39536;52.198;9.920;2022-08-30T05:33:25;12.30;;;11.40;;
13967;SDS011;39536;52.198;9.920;2022-08-30T05:35:52;11.53;;;10.63;;
13967;SDS011;39536;52.198;9.920;2022-08-30T05:38:19;11.20;;;10.30;;
13967;SDS011;39536;52.198;9.920;2022-08-30T05:40:46;12.63;;;11.67;;
13967;SDS011;39536;52.198;9.920;2022-08-30T05:43:15;11.60;;;10.63;;
13967;SDS011;39536;52.198;9.920;2022-08-30T05:45:42;11.30;;;10.30;;
13967;SDS011;39536;52.198;9.920;2022-08-30T05:48:08;12.30;;;11.10;;
13967;SDS011;39536;52.198;9.920;2022-08-30T05:50:35;11.77;;;10.77;;
13967;SDS011;39536;52.198;9.920;2022-08-30T05:53:01;11.77;;;10.63;;
13967;SDS011;39536;52.198;9.920;2022-08-30T05:55:28;11.63;;;10.73;;
13967;SDS011;39536;52.198;9.920;2022-08-30T05:57:55;11.80;;;10.77;;
13967;SDS011;39536;52.198;9.920;2022-08-30T06:00:23;11.47;;;10.33;;
13967;SDS011;39536;52.198;9.920;2022-08-30T06:02:51;11.37;;;10.37;;
13967;SDS011;39536;52.198;9.920;2022-08-30T06:05:19;11.93;;;10.90;;
13967;SDS011;39536;52.198;9.920;2022-08-30T06:07:45;12.63;;;11.57;;
13967;SDS011;39536;52.198;9.920;2022-08-30T06:10:12;11.53;;;10.63;;
13967;SDS011;39536;52.198;9.920;2022-08-30T06:12:38;11.40;;;10.43;;
13967;SDS011;39536;52.198;9.920;2022-08-30T06:15:06;11.50;;;10.33;;
13967;SDS011;39536;52.198;9.920;2022-08-30T06:17:34;11.70;;;10.70;;
13967;SDS011;39536;52.198;9.920;2022-08-30T06:20:04;11.47;;;10.57;;
13967;SDS011;39536;52.198;9.920;2022-08-30T06:22:31;11.30;;;10.30;;
13967;SDS011;39536;52.198;9.920;2022-08-30T06:24:58;10.90;;;10.07;;
13967;SDS011;39536;52.198;9.920;2022-08-30T06:27:24;11.13;;;10.23;;
13967;SDS011;39536;52.198;9.920;2022-08-30T06:29:51;11.63;;;10.43;;
13967;SDS011;39536;52.198;9.920;2022-08-30T06:32:18;12.10;;;10.97;;
13967;SDS011;39536;52.198;9.920;2022-08-30T06:34:48;13.30;;;12.00;;
13967;SDS011;39536;52.198;9.920;2022-08-30T06:37:15;12.87;;;11.87;;
13967;SDS011;39536;52.198;9.920;2022-08-30T06:39:41;13.77;;;12.23;;
13967;SDS011;39536;52.198;9.920;2022-08-30T06:42:08;12.97;;;11.87;;
13967;SDS011;39536;52.198;9.920;2022-08-30T06:44:35;13.20;;;12.00;;
13967;SDS011;39536;52.198;9.920;2022-08-30T06:47:01;12.80;;;11.70;;
13967;SDS011;39536;52.198;9.920;2022-08-30T06:49:28;13.17;;;12.07;;
13967;SDS011;39536;52.198;9.920;2022-08-30T06:51:56;12.90;;;11.67;;
13967;SDS011;39536;52.198;9.920;2022-08-30T06:54:22;13.33;;;11.83;;
13967;SDS011;39536;52.198;9.920;2022-08-30T06:56:49;11.97;;;10.87;;
13967;SDS011;39536;52.198;9.920;2022-08-30T06:59:15;19.10;;;13.30;;
13967;SDS011;39536;52.198;9.920;2022-08-30T07:01:42;12.60;;;11.23;;
13967;SDS011;39536;52.198;9.920;2022-08-30T07:04:08;11.50;;;10.50;;
13967;SDS011;39536;52.198;9.920;2022-08-30T07:06:35;13.43;;;12.30;;
13967;SDS011;39536;52.198;9.920;2022-08-30T07:09:03;13.40;;;12.30;;
13967;SDS011;39536;52.198;9.920;2022-08-30T07:11:31;13.17;;;12.00;;
13967;SDS011;39536;52.198;9.920;2022-08-30T07:13:59;12.77;;;11.67;;
13967;SDS011;39536;52.198;9.920;2022-08-30T07:16:26;12.40;;;11.40;;
13967;SDS011;39536;52.198;9.920;2022-08-30T07:18:53;12.40;;;11.40;;
13967;SDS011;39536;52.198;9.920;2022-08-30T07:21:20;12.37;;;11.30;;
13967;SDS011;39536;52.198;9.920;2022-08-30T07:23:50;12.23;;;11.17;;
13967;SDS011;39536;52.198;9.920;2022-08-30T07:26:20;11.20;;;10.30;;
13967;SDS011;39536;52.198;9.920;2022-08-30T07:28:48;11.63;;;10.53;;
13967;SDS011;39536;52.198;9.920;2022-08-30T07:31:16;11.60;;;10.53;;
13967;SDS011;39536;52.198;9.920;2022-08-30T07:33:44;12.03;;;10.93;;
13967;SDS011;39536;52.198;9.920;2022-08-30T07:36:11;11.33;;;10.43;;
13967;SDS011;39536;52.198;9.920;2022-08-30T07:38:39;12.13;;;11.03;;
13967;SDS011;39536;52.198;9.920;2022-08-30T07:41:06;11.30;;;10.33;;
13967;SDS011;39536;52.198;9.920;2022-08-30T07:43:34;11.50;;;10.50;;
13967;SDS011;39536;52.198;9.920;2022-08-30T07:46:03;10.67;;;9.80;;
13967;SDS011;39536;52.198;9.920;2022-08-30T07:48:31;11.23;;;10.33;;
13967;SDS011;39536;52.198;9.920;2022-08-30T07:50:58;11.27;;;10.33;;
13967;SDS011;39536;52.198;9.920;2022-08-30T07:53:25;11.13;;;10.27;;
13967;SDS011;39536;52.198;9.920;2022-08-30T07:55:51;11.73;;;10.63;;
13967;SDS011;39536;52.198;9.920;2022-08-30T07:58:18;10.57;;;9.53;;
13967;SDS011;39536;52.198;9.920;2022-08-30T08:00:47;9.90;;;9.10;;
13967;SDS011;39536;52.198;9.920;2022-08-30T08:03:14;9.53;;;8.83;;
13967;SDS011;39536;52.198;9.920;2022-08-30T08:05:43;10.70;;;9.70;;
13967;SDS011;39536;52.198;9.920;2022-08-30T08:08:11;10.80;;;9.90;;
13967;SDS011;39536;52.198;9.920;2022-08-30T08:10:39;10.90;;;10.03;;
13967;SDS011;39536;52.198;9.920;2022-08-30T08:13:06;10.63;;;9.83;;
13967;SDS011;39536;52.198;9.920;2022-08-30T08:15:33;10.53;;;9.73;;
13967;SDS011;39536;52.198;9.920;2022-08-30T08:18:01;12.37;;;10.50;;
13967;SDS011;39536;52.198;9.920;2022-08-30T08:20:27;11.30;;;9.77;;
13967;SDS011;39536;52.198;9.920;2022-08-30T08:22:54;10.77;;;9.77;;
13967;SDS011;39536;52.198;9.920;2022-08-30T08:25:21;10.83;;;9.83;;
13967;SDS011;39536;52.198;9.920;2022-08-30T08:27:49;11.27;;;10.37;;
13967;SDS011;39536;52.198;9.920;2022-08-30T08:30:16;11.33;;;10.33;;
13967;SDS011;39536;52.198;9.920;2022-08-30T08:32:43;11.07;;;10.17;;
13967;SDS011;39536;52.198;9.920;2022-08-30T08:35:14;11.10;;;10.10;;
13967;SDS011;39536;52.198;9.920;2022-08-30T08:37:41;10.97;;;9.97;;
13967;SDS011;39536;52.198;9.920;2022-08-30T08:40:12;12.37;;;11.17;;
13967;SDS011;39536;52.198;9.920;2022-08-30T08:42:45;11.90;;;10.80;;
13967;SDS011;39536;52.198;9.920;2022-08-30T08:45:21;11.27;;;10.17;;
13967;SDS011;39536;52.198;9.920;2022-08-30T08:47:56;10.67;;;9.87;;
13967;SDS011;39536;52.198;9.920;2022-08-30T08:50:28;12.20;;;11.20;;
13967;SDS011;39536;52.198;9.920;2022-08-30T08:52:56;11.23;;;10.30;;
13967;SDS011;39536;52.198;9.920;2022-08-30T08:55:46;10.47;;;9.53;;
13967;SDS011;39536;52.198;9.920;2022-08-30T08:58:17;10.37;;;9.57;;
13967;SDS011;39536;52.198;9.920;2022-08-30T09:00:47;10.13;;;9.30;;
13967;SDS011;39536;52.198;9.920;2022-08-30T09:03:14;8.97;;;8.27;;
13967;SDS011;39536;52.198;9.920;2022-08-30T09:05:44;8.77;;;7.97;;
13967;SDS011;39536;52.198;9.920;2022-08-30T09:08:13;9.70;;;9.00;;
13967;SDS011;39536;52.198;9.920;2022-08-30T09:10:42;9.77;;;8.40;;
13967;SDS011;39536;52.198;9.920;2022-08-30T09:13:15;9.20;;;8.47;;
13967;SDS011;39536;52.198;9.920;2022-08-30T09:15:42;8.37;;;7.77;;
13967;SDS011;39536;52.198;9.920;2022-08-30T09:18:09;8.40;;;7.80;;
13967;SDS011;39536;52.198;9.920;2022-08-30T09:20:37;7.77;;;7.17;;
13967;SDS011;39536;52.198;9.920;2022-08-30T09:23:20;7.30;;;6.80;;
13967;SDS011;39536;52.198;9.920;2022-08-30T09:25:53;7.20;;;6.60;;
13967;SDS011;39536;52.198;9.920;2022-08-30T09:28:22;7.50;;;6.90;;
13967;SDS011;39536;52.198;9.920;2022-08-30T09:31:01;8.77;;;8.07;;
13967;SDS011;39536;52.198;9.920;2022-08-30T09:33:30;8.70;;;8.10;;
13967;SDS011;39536;52.198;9.920;2022-08-30T09:36:08;8.07;;;7.47;;
13967;SDS011;39536;52.198;9.920;2022-08-30T09:38:40;8.33;;;7.73;;
13967;SDS011;39536;52.198;9.920;2022-08-30T09:44:03;9.20;;;8.53;;
13967;SDS011;39536;52.198;9.920;2022-08-30T09:46:33;6.80;;;6.30;;
13967;SDS011;39536;52.198;9.920;2022-08-30T09:49:08;6.07;;;5.67;;
13967;SDS011;39536;52.198;9.920;2022-08-30T09:51:54;6.30;;;5.80;;
13967;SDS011;39536;52.198;9.920;2022-08-30T09:54:34;6.27;;;5.87;;
13967;SDS011;39536;52.198;9.920;2022-08-30T09:57:09;5.80;;;5.40;;
13967;SDS011;39536;52.198;9.920;2022-08-30T09:59:46;5.13;;;4.73;;
13967;SDS011;39536;52.198;9.920;2022-08-30T10:02:26;4.33;;;4.10;;
13967;SDS011;39536;52.198;9.920;2022-08-30T10:05:04;5.20;;;4.83;;
13967;SDS011;39536;52.198;9.920;2022-08-30T10:07:39;4.90;;;4.37;;
13967;SDS011;39536;52.198;9.920;2022-08-30T10:10:14;4.40;;;4.13;;
13967;SDS011;39536;52.198;9.920;2022-08-30T10:12:46;4.37;;;4.07;;
13967;SDS011;39536;52.198;9.920;2022-08-30T10:15:24;4.37;;;4.10;;
13967;SDS011;39536;52.198;9.920;2022-08-30T10:17:54;3.87;;;3.63;;
13967;SDS011;39536;52.198;9.920;2022-08-30T10:20:30;3.33;;;3.13;;
13967;SDS011;39536;52.198;9.920;2022-08-30T10:23:04;3.80;;;3.60;;
13967;SDS011;39536;52.198;9.920;2022-08-30T10:25:36;4.10;;;3.90;;
13967;SDS011;39536;52.198;9.920;2022-08-30T10:28:08;5.43;;;4.57;;
13967;SDS011;39536;52.198;9.920;2022-08-30T10:30:41;3.70;;;3.50;;
13967;SDS011;39536;52.198;9.920;2022-08-30T10:33:14;4.40;;;4.17;;
13967;SDS011;39536;52.198;9.920;2022-08-30T10:35:44;7.20;;;4.80;;
13967;SDS011;39536;52.198;9.920;2022-08-30T10:38:17;4.97;;;4.67;;
13967;SDS011;39536;52.198;9.920;2022-08-30T10:40:49;4.67;;;4.37;;
13967;SDS011;39536;52.198;9.920;2022-08-30T10:43:40;4.80;;;4.33;;
13967;SDS011;39536;52.198;9.920;2022-08-30T10:46:15;5.20;;;4.90;;
13967;SDS011;39536;52.198;9.920;2022-08-30T10:48:49;7.63;;;7.13;;
13967;SDS011;39536;52.198;9.920;2022-08-30T10:51:19;7.83;;;7.33;;
13967;SDS011;39536;52.198;9.920;2022-08-30T10:53:54;5.63;;;5.23;;
13967;SDS011;39536;52.198;9.920;2022-08-30T10:56:26;5.30;;;4.90;;
13967;SDS011;39536;52.198;9.920;2022-08-30T10:58:54;3.60;;;3.40;;
13967;SDS011;39536;52.198;9.920;2022-08-30T11:01:26;3.43;;;3.13;;
13967;SDS011;39536;52.198;9.920;2022-08-30T11:04:12;4.30;;;4.10;;
13967;SDS011;39536;52.198;9.920;2022-08-30T11:06:54;3.97;;;3.77;;
13967;SDS011;39536;52.198;9.920;2022-08-30T11:09:41;4.37;;;4.00;;
13967;SDS011;39536;52.198;9.920;2022-08-30T11:12:29;3.97;;;3.77;;
13967;SDS011;39536;52.198;9.920;2022-08-30T11:14:59;3.93;;;3.50;;
13967;SDS011;39536;52.198;9.920;2022-08-30T11:17:37;3.53;;;3.33;;
13967;SDS011;39536;52.198;9.920;2022-08-30T11:20:19;4.00;;;3.80;;
13967;SDS011;39536;52.198;9.920;2022-08-30T11:25:48;3.40;;;3.20;;
13967;SDS011;39536;52.198;9.920;2022-08-30T11:31:28;3.40;;;3.20;;
13967;SDS011;39536;52.198;9.920;2022-08-30T11:33:59;4.60;;;4.20;;
13967;SDS011;39536;52.198;9.920;2022-08-30T11:39:52;3.40;;;3.10;;
13967;SDS011;39536;52.198;9.920;2022-08-30T11:42:25;3.83;;;3.63;;
13967;SDS011;39536;52.198;9.920;2022-08-30T11:48:01;3.80;;;3.50;;
13967;SDS011;39536;52.198;9.920;2022-08-30T11:50:30;3.97;;;3.77;;
13967;SDS011;39536;52.198;9.920;2022-08-30T11:53:02;3.30;;;3.00;;
13967;SDS011;39536;52.198;9.920;2022-08-30T11:55:43;3.37;;;3.13;;
13967;SDS011;39536;52.198;9.920;2022-08-30T11:58:21;3.47;;;3.27;;
13967;SDS011;39536;52.198;9.920;2022-08-30T12:01:16;3.90;;;3.60;;
13967;SDS011;39536;52.198;9.920;2022-08-30T12:03:53;3.77;;;3.47;;
13967;SDS011;39536;52.198;9.920;2022-08-30T12:09:11;3.60;;;3.03;;
13967;SDS011;39536;52.198;9.920;2022-08-30T12:12:00;2.80;;;2.60;;
13967;SDS011;39536;52.198;9.920;2022-08-30T12:14:35;3.27;;;3.07;;
13967;SDS011;39536;52.198;9.920;2022-08-30T12:17:14;3.30;;;3.10;;
13967;SDS011;39536;52.198;9.920;2022-08-30T12:20:03;3.40;;;3.17;;
13967;SDS011;39536;52.198;9.920;2022-08-30T12:22:36;3.57;;;3.37;;
13967;SDS011;39536;52.198;9.920;2022-08-30T12:25:12;3.57;;;3.37;;
13967;SDS011;39536;52.198;9.920;2022-08-30T12:27:44;3.10;;;2.90;;
13967;SDS011;39536;52.198;9.920;2022-08-30T12:30:10;4.10;;;3.80;;
13967;SDS011;39536;52.198;9.920;2022-08-30T12:32:41;4.33;;;4.03;;
13967;SDS011;39536;52.198;9.920;2022-08-30T12:35:16;3.83;;;3.60;;
13967;SDS011;39536;52.198;9.920;2022-08-30T12:37:52;4.07;;;3.77;;
13967;SDS011;39536;52.198;9.920;2022-08-30T12:40:21;3.90;;;3.60;;
13967;SDS011;39536;52.198;9.920;2022-08-30T12:42:52;3.20;;;3.10;;
13967;SDS011;39536;52.198;9.920;2022-08-30T12:45:21;4.40;;;4.20;;
13967;SDS011;39536;52.198;9.920;2022-08-30T12:47:54;4.23;;;3.97;;
13967;SDS011;39536;52.198;9.920;2022-08-30T12:50:24;3.33;;;3.13;;
13967;SDS011;39536;52.198;9.920;2022-08-30T12:52:55;3.63;;;3.43;;
13967;SDS011;39536;52.198;9.920;2022-08-30T12:55:25;6.30;;;3.30;;
13967;SDS011;39536;52.198;9.920;2022-08-30T12:57:56;4.03;;;3.83;;
13967;SDS011;39536;52.198;9.920;2022-08-30T13:00:26;4.03;;;3.73;;
13967;SDS011;39536;52.198;9.920;2022-08-30T13:02:58;3.83;;;3.40;;
13967;SDS011;39536;52.198;9.920;2022-08-30T13:05:28;3.40;;;3.20;;
13967;SDS011;39536;52.198;9.920;2022-08-30T13:08:11;3.40;;;3.30;;
13967;SDS011;39536;52.198;9.920;2022-08-30T13:10:51;3.13;;;2.97;;
13967;SDS011;39536;52.198;9.920;2022-08-30T13:13:35;3.33;;;3.17;;
13967;SDS011;39536;52.198;9.920;2022-08-30T13:16:11;3.00;;;2.90;;
13967;SDS011;39536;52.198;9.920;2022-08-30T13:18:49;3.17;;;2.90;;
13967;SDS011;39536;52.198;9.920;2022-08-30T13:21:18;2.27;;;2.17;;
13967;SDS011;39536;52.198;9.920;2022-08-30T13:23:47;2.50;;;2.30;;
13967;SDS011;39536;52.198;9.920;2022-08-30T13:26:15;2.60;;;2.40;;
13967;SDS011;39536;52.198;9.920;2022-08-30T13:28:44;2.80;;;2.60;;
13967;SDS011;39536;52.198;9.920;2022-08-30T13:31:11;3.50;;;2.73;;
13967;SDS011;39536;52.198;9.920;2022-08-30T13:33:38;3.00;;;2.90;;
13967;SDS011;39536;52.198;9.920;2022-08-30T13:36:04;3.77;;;3.50;;
13967;SDS011;39536;52.198;9.920;2022-08-30T13:38:32;3.50;;;3.20;;
13967;SDS011;39536;52.198;9.920;2022-08-30T13:40:59;3.87;;;3.67;;
13967;SDS011;39536;52.198;9.920;2022-08-30T13:43:25;4.03;;;3.63;;
13967;SDS011;39536;52.198;9.920;2022-08-30T13:45:53;2.80;;;2.70;;
13967;SDS011;39536;52.198;9.920;2022-08-30T13:48:21;3.70;;;3.50;;
13967;SDS011;39536;52.198;9.920;2022-08-30T13:50:47;3.47;;;3.27;;
13967;SDS011;39536;52.198;9.920;2022-08-30T13:53:14;3.30;;;3.00;;
13967;SDS011;39536;52.198;9.920;2022-08-30T13:55:41;3.33;;;3.00;;
13967;SDS011;39536;52.198;9.920;2022-08-30T13:58:09;3.33;;;3.13;;
13967;SDS011;39536;52.198;9.920;2022-08-30T14:00:35;3.43;;;2.80;;
13967;SDS011;39536;52.198;9.920;2022-08-30T14:03:03;4.33;;;4.13;;
13967;SDS011;39536;52.198;9.920;2022-08-30T14:05:31;3.90;;;3.47;;
13967;SDS011;39536;52.198;9.920;2022-08-30T14:07:59;4.57;;;4.17;;
13967;SDS011;39536;52.198;9.920;2022-08-30T14:10:27;3.47;;;3.27;;
13967;SDS011;39536;52.198;9.920;2022-08-30T14:12:55;3.30;;;3.00;;
13967;SDS011;39536;52.198;9.920;2022-08-30T14:15:21;3.93;;;3.63;;
13967;SDS011;39536;52.198;9.920;2022-08-30T14:17:49;4.40;;;4.20;;
13967;SDS011;39536;52.198;9.920;2022-08-30T14:20:17;3.00;;;2.90;;
13967;SDS011;39536;52.198;9.920;2022-08-30T14:22:45;4.07;;;3.77;;
13967;SDS011;39536;52.198;9.920;2022-08-30T14:25:11;4.10;;;3.70;;
13967;SDS011;39536;52.198;9.920;2022-08-30T14:27:38;4.33;;;4.03;;
13967;SDS011;39536;52.198;9.920;2022-08-30T14:30:05;3.70;;;3.50;;
13967;SDS011;39536;52.198;9.920;2022-08-30T14:32:32;4.00;;;3.73;;
13967;SDS011;39536;52.198;9.920;2022-08-30T14:34:58;3.60;;;3.40;;
13967;SDS011;39536;52.198;9.920;2022-08-30T14:37:26;3.37;;;3.17;;
13967;SDS011;39536;52.198;9.920;2022-08-30T14:39:53;3.43;;;3.23;;
13967;SDS011;39536;52.198;9.920;2022-08-30T14:42:19;3.40;;;3.20;;
13967;SDS011;39536;52.198;9.920;2022-08-30T14:44:46;3.00;;;2.90;;
13967;SDS011;39536;52.198;9.920;2022-08-30T14:47:12;3.07;;;2.90;;
13967;SDS011;39536;52.198;9.920;2022-08-30T14:49:39;3.07;;;2.87;;
13967;SDS011;39536;52.198;9.920;2022-08-30T14:52:06;2.97;;;2.87;;
13967;SDS011;39536;52.198;9.920;2022-08-30T14:54:33;3.73;;;2.70;;
13967;SDS011;39536;52.198;9.920;2022-08-30T14:57:00;3.20;;;2.90;;
13967;SDS011;39536;52.198;9.920;2022-08-30T14:59:26;2.77;;;2.67;;
13967;SDS011;39536;52.198;9.920;2022-08-30T15:01:53;2.80;;;2.67;;
13967;SDS011;39536;52.198;9.920;2022-08-30T15:04:20;2.87;;;2.73;;
13967;SDS011;39536;52.198;9.920;2022-08-30T15:06:46;2.87;;;2.77;;
13967;SDS011;39536;52.198;9.920;2022-08-30T15:09:15;2.93;;;2.73;;
13967;SDS011;39536;52.198;9.920;2022-08-30T15:11:45;2.77;;;2.60;;